Time;durP1;ratioP1;P1;durP2;ratioP2;P2;SDS_P1;SDS_P2;PMS_P1;PMS_P2;Temp;Humidity;BMP_temperature;BMP_pressure;BME280_temperature;BME280_humidity;BME280_pressure;Samples;Min_cycle;Max_cycle;Signal;HPM_P1;HPM_P2
2022/07/13 00:02:16;;;;;;;1.60;0.60;;;;;;;24.56;45.66;100404.00;5091187;28;20485;-65
2022/07/13 00:04:42;;;;;;;2.38;0.63;;;;;;;24.55;45.82;100406.84;5090893;28;20051;-66
2022/07/13 00:07:09;;;;;;;0.52;0.50;;;;;;;24.51;45.89;100411.72;5090999;28;20105;-64
2022/07/13 00:09:36;;;;;;;1.23;0.70;;;;;;;24.48;45.53;100403.13;5091058;28;20492;-64
2022/07/13 00:12:03;;;;;;;2.95;0.70;;;;;;;24.43;45.83;100401.78;5090605;28;20063;-64
2022/07/13 00:14:29;;;;;;;0.82;0.60;;;;;;;24.39;46.18;100397.72;5090949;28;20101;-64
2022/07/13 00:16:56;;;;;;;1.70;0.70;;;;;;;24.36;45.91;100399.91;5090940;28;20048;-64
2022/07/13 00:19:22;;;;;;;0.90;0.70;;;;;;;24.33;46.01;100401.91;5090553;28;20048;-64
2022/07/13 00:21:49;;;;;;;0.60;0.60;;;;;;;24.31;45.64;100397.69;5091050;28;20060;-66
2022/07/13 00:24:15;;;;;;;0.75;0.60;;;;;;;24.30;45.96;100396.00;5090901;28;20044;-66
2022/07/13 00:26:42;;;;;;;1.55;0.93;;;;;;;24.28;46.24;100390.78;5090713;28;20055;-64
2022/07/13 00:29:09;;;;;;;0.95;0.60;;;;;;;24.28;46.71;100387.25;5090500;28;20052;-67
2022/07/13 00:31:36;;;;;;;0.85;0.80;;;;;;;24.26;46.03;100395.47;5090809;28;20048;-63
2022/07/13 00:34:02;;;;;;;2.15;0.82;;;;;;;24.24;46.19;100394.81;5090447;28;20488;-64
2022/07/13 00:36:29;;;;;;;1.50;1.00;;;;;;;24.22;46.00;100388.72;5090876;28;20056;-65
2022/07/13 00:38:56;;;;;;;4.20;0.85;;;;;;;24.20;46.40;100388.91;5089252;28;20072;-65
2022/07/13 00:41:22;;;;;;;1.48;0.93;;;;;;;24.19;46.37;100394.47;5090827;28;20044;-63
2022/07/13 00:43:49;;;;;;;1.20;0.90;;;;;;;24.18;46.34;100384.72;5090475;28;20068;-64
2022/07/13 00:46:16;;;;;;;1.45;0.90;;;;;;;24.16;46.46;100381.31;5089372;28;20396;-64
2022/07/13 00:48:43;;;;;;;0.82;0.82;;;;;;;24.15;46.52;100377.78;5090198;28;20052;-64
2022/07/13 00:51:10;;;;;;;1.70;0.98;;;;;;;24.13;46.47;100377.09;5090476;28;20063;-66
2022/07/13 00:53:38;;;;;;;1.13;0.80;;;;;;;24.11;46.52;100376.41;5090552;28;20078;-65
2022/07/13 00:56:06;;;;;;;0.93;0.90;;;;;;;24.08;46.48;100361.41;5089267;28;20051;-66
2022/07/13 00:58:33;;;;;;;2.53;0.80;;;;;;;24.07;46.94;100356.22;5090232;28;20058;-64
2022/07/13 01:00:59;;;;;;;2.90;1.40;;;;;;;24.06;46.61;100355.38;5090287;28;20056;-64
2022/07/13 01:03:26;;;;;;;1.13;0.85;;;;;;;24.04;46.91;100361.91;5090341;28;20087;-66
2022/07/13 01:05:53;;;;;;;0.85;0.70;;;;;;;24.03;47.19;100366.44;5090622;28;20048;-64
2022/07/13 01:08:22;;;;;;;2.63;0.90;;;;;;;24.02;47.03;100367.44;5088929;28;20841;-66
2022/07/13 01:10:48;;;;;;;1.35;0.80;;;;;;;24.00;47.07;100369.44;5090448;28;20562;-64
2022/07/13 01:13:17;;;;;;;0.98;0.73;;;;;;;23.98;47.37;100366.09;5090286;28;20412;-64
2022/07/13 01:15:44;;;;;;;1.55;0.80;;;;;;;23.98;46.91;100362.53;5090185;28;20062;-63
2022/07/13 01:18:12;;;;;;;2.50;1.10;;;;;;;23.97;47.15;100363.56;5090260;28;20097;-64
2022/07/13 01:20:42;;;;;;;1.52;1.10;;;;;;;23.97;47.35;100359.03;5089156;28;20062;-63
2022/07/13 01:23:14;;;;;;;1.73;1.30;;;;;;;23.94;47.41;100340.53;5088983;28;20261;-64
2022/07/13 01:25:41;;;;;;;1.90;1.40;;;;;;;23.97;47.19;100342.03;5091556;28;20454;-65
2022/07/13 01:28:08;;;;;;;1.33;1.15;;;;;;;23.97;47.35;100342.91;5093575;28;20392;-65
2022/07/13 01:30:35;;;;;;;1.33;1.00;;;;;;;23.95;47.26;100337.69;5093970;28;20048;-64
2022/07/13 01:33:02;;;;;;;2.00;0.95;;;;;;;23.95;46.98;100332.31;5093928;28;20503;-65
2022/07/13 01:35:28;;;;;;;3.30;1.30;;;;;;;23.93;46.95;100328.91;5094118;28;20048;-66
2022/07/13 01:37:55;;;;;;;1.65;1.25;;;;;;;23.92;47.34;100321.03;5094074;28;20056;-64
2022/07/13 01:40:22;;;;;;;1.67;1.30;;;;;;;23.91;47.30;100317.50;5093420;28;20083;-64
2022/07/13 01:42:51;;;;;;;1.38;1.17;;;;;;;23.89;47.44;100318.66;5093635;28;20056;-64
2022/07/13 01:45:22;;;;;;;2.45;1.17;;;;;;;23.88;47.25;100304.38;5092670;28;20052;-66
2022/07/13 01:47:51;;;;;;;1.90;1.45;;;;;;;23.87;47.22;100300.00;5093692;28;20067;-63
2022/07/13 01:50:22;;;;;;;1.65;1.17;;;;;;;23.87;47.64;100307.22;5093359;28;20066;-63
2022/07/13 01:52:49;;;;;;;2.08;1.42;;;;;;;23.89;47.45;100299.84;5092641;28;20064;-65
2022/07/13 01:55:16;;;;;;;1.65;1.10;;;;;;;23.89;47.54;100299.84;5093385;28;20050;-64
2022/07/13 01:57:46;;;;;;;1.50;1.20;;;;;;;23.87;47.56;100301.84;5093567;28;20104;-65
2022/07/13 02:00:19;;;;;;;1.27;1.17;;;;;;;23.87;47.40;100301.84;5093486;28;20051;-64
2022/07/13 02:02:47;;;;;;;2.15;1.58;;;;;;;23.88;47.42;100298.16;5092289;28;20114;-65
2022/07/13 02:05:15;;;;;;;1.85;1.38;;;;;;;23.88;47.29;100304.38;5092174;28;20051;-65
2022/07/13 02:07:42;;;;;;;1.88;1.20;;;;;;;23.88;47.52;100308.91;5093114;28;20450;-66
2022/07/13 02:10:11;;;;;;;2.10;1.30;;;;;;;23.86;47.31;100294.78;5092858;28;20055;-66
2022/07/13 02:12:38;;;;;;;5.30;1.55;;;;;;;23.86;47.55;100292.94;5092008;28;20044;-65
2022/07/13 02:15:06;;;;;;;2.47;1.55;;;;;;;23.86;47.81;100297.47;5091943;28;20060;-65
2022/07/13 02:17:32;;;;;;;1.77;1.30;;;;;;;23.85;47.38;100293.94;5091781;28;20385;-64
2022/07/13 02:19:59;;;;;;;2.03;1.35;;;;;;;23.86;47.78;100298.31;5092994;28;20078;-65
2022/07/13 02:22:26;;;;;;;3.55;1.10;;;;;;;23.87;47.74;100293.78;5092980;28;20127;-64
2022/07/13 02:24:52;;;;;;;1.42;1.20;;;;;;;23.87;47.57;100296.47;5092994;28;20047;-64
2022/07/13 02:27:19;;;;;;;2.00;1.20;;;;;;;23.87;47.52;100286.56;5091770;28;20055;-63
2022/07/13 02:29:45;;;;;;;1.20;1.10;;;;;;;23.87;47.75;100272.25;5092632;28;20060;-64
2022/07/13 02:32:12;;;;;;;2.20;1.38;;;;;;;23.88;47.35;100255.97;5093151;28;20044;-64
2022/07/13 02:34:38;;;;;;;1.38;1.20;;;;;;;23.89;47.77;100254.13;5091580;28;20437;-64
2022/07/13 02:37:05;;;;;;;2.03;1.20;;;;;;;23.91;47.69;100261.03;5092847;28;20059;-66
2022/07/13 02:39:32;;;;;;;1.80;1.48;;;;;;;23.91;47.37;100250.28;5092929;28;20117;-64
2022/07/13 02:41:58;;;;;;;3.53;1.50;;;;;;;23.93;47.10;100253.63;5092694;28;20049;-64
2022/07/13 02:44:25;;;;;;;2.35;1.50;;;;;;;23.93;47.39;100250.94;5092830;28;20451;-64
2022/07/13 02:46:51;;;;;;;2.53;1.50;;;;;;;23.94;47.24;100243.72;5092755;28;20044;-64
2022/07/13 02:49:18;;;;;;;2.05;1.50;;;;;;;23.96;46.77;100257.88;5092399;28;20055;-66
2022/07/13 02:51:44;;;;;;;2.80;1.40;;;;;;;23.95;46.80;100251.63;5092343;28;20048;-64
2022/07/13 02:54:11;;;;;;;2.28;1.35;;;;;;;23.98;46.66;100260.38;5092647;28;20052;-66
2022/07/13 02:56:37;;;;;;;2.05;1.33;;;;;;;23.97;46.37;100256.84;5092361;28;20164;-64
2022/07/13 02:59:04;;;;;;;1.45;0.93;;;;;;;23.98;45.81;100253.16;5092088;28;20486;-64
2022/07/13 03:01:31;;;;;;;3.38;1.30;;;;;;;24.00;45.61;100256.50;5092428;28;20052;-65
2022/07/13 03:03:57;;;;;;;1.30;1.20;;;;;;;24.02;45.95;100253.66;5092334;28;20048;-64
2022/07/13 03:06:24;;;;;;;2.58;1.45;;;;;;;24.04;45.68;100260.56;5092067;28;20079;-63
2022/07/13 03:08:51;;;;;;;2.08;1.33;;;;;;;24.06;45.52;100253.19;5090772;28;20422;-64
2022/07/13 03:11:18;;;;;;;1.98;1.50;;;;;;;24.11;45.47;100249.19;5090947;28;20048;-64
2022/07/13 03:13:44;;;;;;;1.40;1.30;;;;;;;24.14;45.55;100255.06;5090989;28;20051;-64
2022/07/13 03:16:11;;;;;;;1.80;1.70;;;;;;;24.17;45.88;100257.44;5092145;28;20044;-64
2022/07/13 03:18:37;;;;;;;3.42;1.73;;;;;;;24.20;45.43;100256.28;5091798;28;20052;-65
2022/07/13 03:21:10;;;;;;;1.80;1.38;;;;;;;24.22;45.44;100254.25;5092034;28;20048;-64
2022/07/13 03:23:36;;;;;;;2.37;1.60;;;;;;;24.25;45.37;100251.22;5090962;28;20097;-63
2022/07/13 03:26:03;;;;;;;4.95;1.50;;;;;;;24.25;45.72;100239.66;5091913;28;20294;-66
2022/07/13 03:28:30;;;;;;;3.25;1.95;;;;;;;24.25;45.62;100240.47;5091621;28;20051;-64
2022/07/13 03:30:57;;;;;;;3.20;1.73;;;;;;;24.26;45.66;100236.75;5091435;28;20074;-64
2022/07/13 03:33:23;;;;;;;2.13;1.70;;;;;;;24.26;45.65;100230.56;5091773;28;20055;-63
2022/07/13 03:35:50;;;;;;;3.45;1.83;;;;;;;24.25;45.44;100231.56;5091802;28;20381;-63
2022/07/13 03:38:17;;;;;;;4.25;1.90;;;;;;;24.25;45.79;100235.09;5091697;28;20051;-63
2022/07/13 03:40:43;;;;;;;2.95;1.67;;;;;;;24.24;45.86;100228.03;5091479;28;20052;-66
2022/07/13 03:43:10;;;;;;;1.80;1.70;;;;;;;24.24;45.75;100240.63;5091505;28;20051;-64
2022/07/13 03:45:37;;;;;;;3.03;1.80;;;;;;;24.22;45.56;100237.28;5091463;28;20097;-64
2022/07/13 03:48:05;;;;;;;2.65;2.10;;;;;;;24.19;45.75;100239.28;5090616;28;20507;-67
2022/07/13 03:50:32;;;;;;;2.38;1.80;;;;;;;24.17;46.04;100235.06;5090231;28;20079;-64
2022/07/13 03:52:58;;;;;;;4.10;1.92;;;;;;;24.16;45.72;100236.09;5091310;28;20079;-64
2022/07/13 03:55:25;;;;;;;2.75;2.00;;;;;;;24.13;45.85;100231.03;5092058;28;20109;-64
2022/07/13 03:57:51;;;;;;;3.15;2.28;;;;;;;24.11;46.19;100233.88;5091236;28;20048;-66
2022/07/13 04:00:18;;;;;;;3.78;1.95;;;;;;;24.10;45.92;100234.88;5090974;28;20077;-64
2022/07/13 04:02:45;;;;;;;2.70;1.92;;;;;;;24.10;46.09;100231.34;5091454;28;20048;-66
2022/07/13 04:05:12;;;;;;;2.50;2.03;;;;;;;24.07;45.78;100225.28;5091284;28;20489;-66
2022/07/13 04:07:40;;;;;;;1.80;1.65;;;;;;;24.07;46.01;100227.16;5091417;28;20101;-64
2022/07/13 04:10:07;;;;;;;4.80;2.17;;;;;;;24.07;45.76;100222.59;5090925;28;20552;-64
2022/07/13 04:12:34;;;;;;;1.90;1.70;;;;;;;24.08;45.44;100221.56;5091030;28;20056;-64
2022/07/13 04:15:00;;;;;;;1.85;1.70;;;;;;;24.08;45.54;100221.56;5091302;28;20056;-64
2022/07/13 04:17:27;;;;;;;2.58;1.63;;;;;;;24.08;45.56;100218.88;5091211;28;20123;-65
2022/07/13 04:19:56;;;;;;;1.60;1.50;;;;;;;24.10;45.15;100218.75;5090861;28;20052;-64
2022/07/13 04:22:23;;;;;;;2.58;1.58;;;;;;;24.11;45.40;100220.44;5091197;28;20059;-65
2022/07/13 04:24:50;;;;;;;3.08;1.40;;;;;;;24.13;45.08;100217.59;5091115;28;20051;-64
2022/07/13 04:27:16;;;;;;;1.77;1.50;;;;;;;24.13;44.98;100217.59;5091037;28;20051;-66
2022/07/13 04:29:49;;;;;;;1.73;1.20;;;;;;;24.14;44.12;100222.81;5091073;28;20500;-65
2022/07/13 04:32:16;;;;;;;2.30;1.70;;;;;;;24.14;44.29;100211.22;5091020;28;20112;-64
2022/07/13 04:34:43;;;;;;;3.17;1.40;;;;;;;24.15;43.84;100181.44;5091103;28;20048;-63
2022/07/13 04:37:09;;;;;;;2.10;1.40;;;;;;;24.19;44.08;100179.28;5090985;28;20101;-64
2022/07/13 04:39:39;;;;;;;4.15;1.30;;;;;;;24.21;43.77;100177.25;5090721;28;20052;-64
2022/07/13 04:42:06;;;;;;;2.65;1.60;;;;;;;24.24;43.91;100181.44;5089868;28;20640;-64
2022/07/13 04:44:32;;;;;;;1.83;1.73;;;;;;;24.25;43.73;100183.16;5089697;28;20127;-66
2022/07/13 04:47:04;;;;;;;2.38;1.65;;;;;;;24.26;44.43;100177.59;5091013;28;20136;-64
2022/07/13 04:49:31;;;;;;;2.28;1.50;;;;;;;24.26;44.39;100174.91;5089322;28;20071;-64
2022/07/13 04:51:58;;;;;;;2.80;1.75;;;;;;;24.26;44.36;100182.97;5090890;28;20059;-64
2022/07/13 04:54:24;;;;;;;2.25;1.50;;;;;;;24.26;44.09;100176.75;5090616;28;20051;-64
2022/07/13 04:56:51;;;;;;;2.10;1.70;;;;;;;24.27;44.06;100181.13;5090827;28;20496;-66
2022/07/13 04:59:17;;;;;;;1.40;1.30;;;;;;;24.27;43.83;100178.44;5092733;28;20127;-65
2022/07/13 05:01:44;;;;;;;2.28;1.50;;;;;;;24.27;43.89;100173.91;5095231;28;20052;-70
2022/07/13 05:04:11;;;;;;;1.58;1.35;;;;;;;24.27;43.75;100168.53;5094813;28;20051;-64
2022/07/13 05:06:37;;;;;;;2.55;1.40;;;;;;;24.27;43.98;100176.59;5094403;28;20048;-64
2022/07/13 05:09:05;;;;;;;2.15;1.70;;;;;;;24.28;43.70;100169.34;5094358;28;20503;-66
2022/07/13 05:11:32;;;;;;;2.40;1.40;;;;;;;24.29;43.36;100166.50;5093233;28;20063;-67
2022/07/13 05:13:58;;;;;;;2.35;1.88;;;;;;;24.30;43.40;100165.47;5094558;28;20059;-76
2022/07/13 05:16:25;;;;;;;2.92;1.45;;;;;;;24.32;43.37;100151.88;5094629;28;20648;-63
2022/07/13 05:18:52;;;;;;;3.30;1.42;;;;;;;24.33;43.54;100140.94;5094198;28;20044;-63
2022/07/13 05:21:18;;;;;;;1.75;1.20;;;;;;;24.37;43.14;100148.69;5094653;28;20048;-62
2022/07/13 05:23:45;;;;;;;2.17;1.30;;;;;;;24.40;43.10;100142.97;5094507;28;20058;-63
2022/07/13 05:26:11;;;;;;;7.93;1.38;;;;;;;24.43;42.81;100150.69;5094477;28;20044;-65
2022/07/13 05:28:38;;;;;;;2.42;1.50;;;;;;;24.45;42.84;100148.69;5094190;28;20040;-64
2022/07/13 05:31:05;;;;;;;1.90;1.50;;;;;;;24.48;43.26;100151.00;5094138;28;20056;-65
2022/07/13 05:33:31;;;;;;;2.10;1.30;;;;;;;24.51;42.65;100147.16;5094076;28;20051;-63
2022/07/13 05:36:06;;;;;;;2.47;1.30;;;;;;;24.52;42.76;100152.34;5094176;28;20044;-65
2022/07/13 05:38:33;;;;;;;2.35;1.70;;;;;;;24.53;42.33;100148.69;5093950;28;20080;-63
2022/07/13 05:40:59;;;;;;;1.70;1.60;;;;;;;24.56;42.25;100144.81;5092843;28;20044;-63
2022/07/13 05:43:26;;;;;;;2.15;1.42;;;;;;;24.57;42.40;100152.72;5092667;28;20081;-65
2022/07/13 05:45:52;;;;;;;2.78;1.17;;;;;;;24.59;41.75;100145.28;5094017;28;20467;-63
2022/07/13 05:48:19;;;;;;;1.95;1.52;;;;;;;24.63;42.53;100148.47;5093646;28;20139;-63
2022/07/13 05:50:46;;;;;;;2.83;1.70;;;;;;;24.66;42.66;100150.84;5093548;28;20121;-64
2022/07/13 05:53:13;;;;;;;2.50;1.60;;;;;;;24.69;42.27;100152.34;5093297;28;20044;-63
2022/07/13 05:55:40;;;;;;;1.92;1.60;;;;;;;24.73;42.71;100156.38;5093786;28;20047;-63
2022/07/13 05:58:06;;;;;;;2.85;1.60;;;;;;;24.75;42.28;100146.28;5092783;28;20109;-65
2022/07/13 06:00:33;;;;;;;2.55;1.58;;;;;;;24.79;42.59;100150.31;5093303;28;20044;-63
2022/07/13 06:02:59;;;;;;;2.45;1.63;;;;;;;24.81;42.17;100140.22;5093231;28;20048;-63
2022/07/13 06:05:26;;;;;;;2.33;1.70;;;;;;;24.84;42.46;100145.28;5091774;28;20052;-63
2022/07/13 06:07:53;;;;;;;2.80;1.50;;;;;;;24.87;42.57;100144.09;5093573;28;20133;-66
2022/07/13 06:10:19;;;;;;;3.53;1.50;;;;;;;24.90;42.78;100133.00;5092478;28;20051;-63
2022/07/13 06:12:46;;;;;;;2.10;1.60;;;;;;;24.95;43.01;100137.84;5093151;28;20048;-65
2022/07/13 06:15:12;;;;;;;2.35;1.77;;;;;;;24.98;42.79;100142.91;5093230;28;20063;-65
2022/07/13 06:17:39;;;;;;;3.17;2.00;;;;;;;25.02;42.50;100136.16;5092735;28;20048;-64
2022/07/13 06:20:06;;;;;;;2.80;1.70;;;;;;;25.04;42.88;100128.72;5092979;28;20052;-63
2022/07/13 06:22:33;;;;;;;1.77;1.58;;;;;;;25.09;43.29;100131.72;5090962;28;20051;-65
2022/07/13 06:24:59;;;;;;;2.83;1.70;;;;;;;25.14;42.87;100122.28;5093187;28;20503;-64
2022/07/13 06:27:26;;;;;;;3.22;1.77;;;;;;;25.18;43.00;100120.94;5093125;28;20044;-64
2022/07/13 06:29:53;;;;;;;4.30;2.10;;;;;;;25.22;43.29;100122.25;5092872;28;20055;-63
2022/07/13 06:32:19;;;;;;;2.90;1.83;;;;;;;25.26;43.37;100128.97;5092720;28;20133;-63
2022/07/13 06:34:46;;;;;;;1.75;1.60;;;;;;;25.29;43.35;100114.31;5093204;28;20052;-63
2022/07/13 06:37:13;;;;;;;2.42;1.83;;;;;;;25.32;42.82;100112.13;5092113;28;20052;-66
2022/07/13 06:39:59;;;;;;;8.25;2.15;;;;;;;25.37;42.80;100115.13;5091940;28;20051;-65
2022/07/13 06:42:26;;;;;;;1.70;1.60;;;;;;;25.42;42.95;100111.88;5091274;28;20052;-64
2022/07/13 06:44:53;;;;;;;2.47;1.88;;;;;;;25.47;42.96;100114.06;5091033;28;20097;-64
2022/07/13 06:47:19;;;;;;;3.83;1.73;;;;;;;25.50;43.07;100111.03;5091145;28;20059;-66
2022/07/13 06:49:46;;;;;;;2.25;1.73;;;;;;;25.53;42.51;100107.13;5090910;28;20476;-63
2022/07/13 06:52:12;;;;;;;3.45;1.90;;;;;;;25.56;42.61;100106.78;5091702;28;20044;-63
2022/07/13 06:54:39;;;;;;;2.20;1.60;;;;;;;25.57;42.63;100106.59;5092650;28;20048;-63
2022/07/13 06:57:05;;;;;;;5.45;2.17;;;;;;;25.59;42.62;100106.44;5092571;28;20044;-65
2022/07/13 06:59:32;;;;;;;3.78;1.67;;;;;;;25.60;42.89;100105.44;5092723;28;20438;-65
2022/07/13 07:01:59;;;;;;;2.55;1.85;;;;;;;25.61;42.46;100107.13;5074701;28;20079;-64
2022/07/13 07:04:25;;;;;;;3.20;1.77;;;;;;;25.61;42.79;100097.16;5092601;28;20424;-64
2022/07/13 07:06:52;;;;;;;2.20;2.00;;;;;;;25.63;42.97;100097.81;5092759;28;20056;-64
2022/07/13 07:09:19;;;;;;;2.75;1.65;;;;;;;25.64;42.72;100095.94;5092049;28;20076;-63
2022/07/13 07:11:46;;;;;;;2.65;1.60;;;;;;;25.68;43.38;100104.53;5092181;28;20058;-64
2022/07/13 07:14:12;;;;;;;2.33;1.60;;;;;;;25.70;42.95;100097.09;5091917;28;20036;-64
2022/07/13 07:16:39;;;;;;;2.83;2.08;;;;;;;25.74;43.15;100093.03;5092002;28;20040;-64
2022/07/13 07:19:06;;;;;;;3.10;1.70;;;;;;;25.78;43.48;100102.44;5088846;28;20135;-65
2022/07/13 07:21:51;;;;;;;2.15;1.70;;;;;;;25.84;43.28;100109.81;5091399;28;20506;-64
2022/07/13 07:24:17;;;;;;;3.30;2.00;;;;;;;25.91;43.32;100103.69;5091387;28;20048;-64
2022/07/13 07:26:44;;;;;;;3.88;1.60;;;;;;;25.96;43.15;100104.84;5092338;28;20071;-63
2022/07/13 07:29:10;;;;;;;2.97;1.45;;;;;;;26.02;43.00;100101.41;5091388;28;20056;-65
2022/07/13 07:31:37;;;;;;;3.78;1.60;;;;;;;26.10;43.24;100107.75;5091841;28;20054;-63
2022/07/13 07:34:04;;;;;;;2.08;1.60;;;;;;;26.17;43.37;100100.63;5091615;28;20488;-62
2022/07/13 07:36:31;;;;;;;1.67;1.50;;;;;;;26.25;43.19;100088.91;5091813;28;20543;-64
2022/07/13 07:38:58;;;;;;;1.38;1.27;;;;;;;26.34;43.01;100095.09;5091349;28;20047;-64
2022/07/13 07:41:25;;;;;;;3.40;1.50;;;;;;;26.44;42.77;100087.59;5091984;28;20044;-65
2022/07/13 07:43:51;;;;;;;5.93;1.50;;;;;;;26.53;42.70;100088.34;5091525;28;20101;-63
2022/07/13 07:46:18;;;;;;;4.43;1.67;;;;;;;26.63;42.92;100085.38;5092090;28;20411;-63
2022/07/13 07:48:45;;;;;;;2.95;1.90;;;;;;;26.73;42.29;100098.59;5091432;28;20459;-65
2022/07/13 07:51:11;;;;;;;2.38;1.60;;;;;;;26.83;41.94;100087.53;5091537;28;20048;-64
2022/07/13 07:53:38;;;;;;;1.90;1.50;;;;;;;26.91;41.42;100095.53;5091317;28;20052;-64
2022/07/13 07:56:05;;;;;;;5.40;1.92;;;;;;;26.96;41.17;100093.13;5091535;28;20132;-63
2022/07/13 07:58:31;;;;;;;2.47;1.85;;;;;;;27.01;40.94;100093.41;5091171;28;20052;-63
2022/07/13 08:00:58;;;;;;;2.53;1.85;;;;;;;27.06;41.49;100082.84;5088484;28;20113;-65
2022/07/13 08:03:24;;;;;;;2.75;1.50;;;;;;;27.14;41.86;100090.00;5091254;28;20504;-64
2022/07/13 08:05:52;;;;;;;2.30;1.80;;;;;;;27.22;41.83;100083.69;5091242;28;20055;-65
2022/07/13 08:08:19;;;;;;;4.97;2.00;;;;;;;27.30;41.10;100096.25;5091104;28;20745;-64
2022/07/13 08:10:45;;;;;;;5.10;1.70;;;;;;;27.41;41.22;100087.66;5091402;28;20044;-64
2022/07/13 08:13:12;;;;;;;4.45;1.83;;;;;;;27.52;41.43;100088.16;5091142;28;20054;-63
2022/07/13 08:15:38;;;;;;;4.68;2.13;;;;;;;27.62;40.74;100083.31;5091393;28;20121;-64
2022/07/13 08:18:05;;;;;;;2.85;1.90;;;;;;;27.73;41.04;100075.72;5090973;28;20048;-64
2022/07/13 08:20:32;;;;;;;3.85;2.08;;;;;;;27.83;40.79;100089.75;5090784;28;20055;-64
2022/07/13 08:22:58;;;;;;;3.67;1.92;;;;;;;27.90;40.60;100087.97;5090976;28;20113;-64
2022/07/13 08:25:26;;;;;;;3.83;1.77;;;;;;;27.98;40.36;100078.84;5090791;28;20606;-64
2022/07/13 08:27:52;;;;;;;4.93;2.22;;;;;;;28.04;40.13;100074.53;5090860;28;20408;-64
2022/07/13 08:30:20;;;;;;;2.33;1.85;;;;;;;28.08;39.87;100082.06;5090279;28;20080;-64
2022/07/13 08:32:47;;;;;;;4.85;2.03;;;;;;;28.16;39.68;100086.50;5090937;28;20048;-64
2022/07/13 08:40:44;;;;;;;5.90;2.15;;;;;;;28.36;39.81;100072.31;5090886;28;20101;-65
2022/07/13 08:43:10;;;;;;;2.30;1.70;;;;;;;28.43;39.18;100073.19;5089580;28;20071;-65
2022/07/13 08:45:37;;;;;;;4.45;1.92;;;;;;;28.49;39.29;100072.38;5089683;28;20131;-63
2022/07/13 08:48:16;;;;;;;3.60;2.10;;;;;;;28.53;38.69;100078.28;5090243;28;20043;-64
2022/07/13 08:50:43;;;;;;;2.42;1.83;;;;;;;28.63;38.78;100079.78;5090183;28;20127;-64
2022/07/13 08:53:10;;;;;;;2.65;1.92;;;;;;;28.69;38.54;100070.84;5089319;28;20056;-65
2022/07/13 08:55:38;;;;;;;4.75;2.13;;;;;;;28.78;38.66;100076.94;5090544;28;20047;-64
2022/07/13 08:58:05;;;;;;;2.65;1.90;;;;;;;28.86;38.87;100071.38;5090031;28;20408;-65
2022/07/13 09:00:32;;;;;;;2.70;1.80;;;;;;;28.93;39.24;100077.66;5090654;28;20056;-63
2022/07/13 09:02:59;;;;;;;2.88;1.90;;;;;;;29.02;38.99;100083.75;5090667;28;20044;-63
2022/07/13 09:05:26;;;;;;;7.10;1.80;;;;;;;29.09;38.06;100076.50;5090820;28;20048;-63
2022/07/13 09:08:07;;;;;;;3.13;2.10;;;;;;;29.16;38.34;100070.25;5089436;28;20094;-64
2022/07/13 09:10:53;;;;;;;1.85;1.65;;;;;;;29.23;37.91;100069.22;5089398;28;20407;-64
2022/07/13 09:13:55;;;;;;;3.63;1.85;;;;;;;29.34;38.91;100067.81;5090608;28;20109;-64
2022/07/13 09:16:27;;;;;;;2.55;1.40;;;;;;;29.48;37.83;100062.41;5047962;28;20056;-65
2022/07/13 09:19:01;;;;;;;1.77;1.40;;;;;;;29.56;38.26;100064.16;5089998;28;20045;-64
2022/07/13 09:21:33;;;;;;;2.08;1.70;;;;;;;29.68;38.09;100064.38;5090643;28;20052;-64
2022/07/13 09:24:01;;;;;;;6.22;1.60;;;;;;;29.76;37.52;100067.69;5089526;28;20051;-64
2022/07/13 09:26:42;;;;;;;6.20;1.70;;;;;;;29.83;38.29;100054.16;5089368;28;20087;-63
2022/07/13 09:29:11;;;;;;;2.17;1.27;;;;;;;29.95;37.95;100057.09;5090345;28;20048;-64
2022/07/13 09:31:52;;;;;;;3.35;1.55;;;;;;;30.00;37.76;100056.44;5090104;28;20761;-65
2022/07/13 09:34:20;;;;;;;4.55;1.77;;;;;;;30.10;37.11;100048.72;5090054;28;20048;-64
2022/07/13 09:37:10;;;;;;;4.20;1.77;;;;;;;30.16;37.49;100052.53;5089183;28;20048;-64
2022/07/13 09:40:08;;;;;;;2.58;1.50;;;;;;;30.25;37.11;100050.41;5088856;28;20044;-66
2022/07/13 09:42:42;;;;;;;5.47;1.60;;;;;;;30.36;36.29;100048.94;5084429;28;20059;-63
2022/07/13 09:48:00;;;;;;;2.28;1.45;;;;;;;30.52;36.68;100050.34;5093642;28;20047;-65
2022/07/13 09:50:38;;;;;;;6.10;1.70;;;;;;;30.56;36.09;100046.16;5093691;28;20052;-64
2022/07/13 09:53:23;;;;;;;5.82;1.60;;;;;;;30.61;36.37;100050.97;5091816;28;20044;-64
2022/07/13 09:55:51;;;;;;;2.92;1.63;;;;;;;30.71;36.33;100048.63;5093173;28;20048;-66
2022/07/13 09:58:32;;;;;;;3.13;1.45;;;;;;;30.75;35.91;100047.19;5092677;28;20044;-64
2022/07/13 10:01:02;;;;;;;3.63;1.20;;;;;;;30.86;35.61;100056.53;5092725;28;20055;-64
2022/07/13 10:03:29;;;;;;;2.58;1.60;;;;;;;30.93;36.07;100051.94;5093353;28;20505;-64
2022/07/13 10:05:58;;;;;;;1.90;1.20;;;;;;;31.02;35.49;100057.94;5092313;28;20098;-64
2022/07/13 10:08:26;;;;;;;5.30;1.33;;;;;;;31.12;36.06;100059.34;5075579;28;20060;-64
2022/07/13 10:10:52;;;;;;;2.50;1.52;;;;;;;31.22;35.46;100040.69;5093301;28;20052;-64
2022/07/13 10:13:20;;;;;;;1.83;1.38;;;;;;;31.31;35.30;100055.72;5093665;28;20052;-64
2022/07/13 10:15:47;;;;;;;1.40;1.20;;;;;;;31.40;35.04;100044.59;5091999;28;20101;-63
2022/07/13 10:18:25;;;;;;;8.88;1.40;;;;;;;31.49;34.81;100040.56;5092155;28;20500;-65
2022/07/13 10:21:14;;;;;;;4.53;1.48;;;;;;;31.59;35.25;100059.13;5093331;28;20536;-64
2022/07/13 10:23:41;;;;;;;2.05;1.23;;;;;;;31.78;35.11;100057.31;5092145;28;20048;-64
2022/07/13 10:26:22;;;;;;;2.45;1.20;;;;;;;31.89;34.83;100063.13;5093463;28;20512;-65
2022/07/13 10:29:05;;;;;;;1.30;1.20;;;;;;;32.00;35.22;100056.97;5092920;28;20504;-63
2022/07/13 10:31:33;;;;;;;1.80;1.40;;;;;;;32.17;35.20;100057.22;5091821;28;20044;-64
2022/07/13 10:34:01;;;;;;;2.28;1.30;;;;;;;32.27;34.24;100053.97;5092985;28;20096;-64
2022/07/13 10:36:57;;;;;;;1.98;1.38;;;;;;;32.36;35.11;100058.06;5091704;28;20491;-63
2022/07/13 10:39:26;;;;;;;3.72;1.52;;;;;;;32.54;34.49;100059.19;5092895;28;20051;-64
2022/07/13 10:41:58;;;;;;;2.35;1.58;;;;;;;32.65;34.00;100056.75;5091744;28;20048;-66
2022/07/13 10:44:42;;;;;;;5.07;1.60;;;;;;;32.73;34.42;100053.72;5091613;28;20553;-64
2022/07/13 10:47:12;;;;;;;2.47;1.50;;;;;;;32.87;33.63;100052.50;5093164;28;20446;-65
2022/07/13 10:49:47;;;;;;;6.25;1.50;;;;;;;32.99;33.66;100054.44;5092791;28;20048;-65
2022/07/13 10:52:20;;;;;;;1.77;1.40;;;;;;;33.15;32.95;100066.66;5092897;28;20058;-65
2022/07/13 10:55:06;;;;;;;3.42;1.40;;;;;;;33.39;33.30;100064.00;5092811;28;20497;-63
2022/07/13 10:57:35;;;;;;;3.28;1.38;;;;;;;33.74;33.87;100055.09;5092770;28;20059;-65
2022/07/13 11:00:19;;;;;;;2.72;1.40;;;;;;;34.10;32.77;100049.72;5092552;28;20056;-64
2022/07/13 11:02:48;;;;;;;2.33;1.55;;;;;;;34.54;32.73;100054.75;5093071;28;20105;-64
2022/07/13 11:05:26;;;;;;;2.33;1.50;;;;;;;34.92;31.97;100052.59;5091202;28;20052;-66
2022/07/13 11:07:53;;;;;;;2.58;1.55;;;;;;;35.33;31.66;100057.19;5092705;28;20051;-63
2022/07/13 11:10:30;;;;;;;3.47;1.40;;;;;;;35.67;31.61;100051.78;5092451;28;20126;-64
2022/07/13 11:13:00;;;;;;;1.60;1.30;;;;;;;36.02;31.03;100040.81;5092195;28;20423;-65
2022/07/13 11:15:55;;;;;;;2.13;1.50;;;;;;;36.33;29.63;100049.50;5092241;28;20095;-64
2022/07/13 11:18:22;;;;;;;2.13;1.60;;;;;;;36.63;29.98;100040.84;5092249;28;20048;-63
2022/07/13 11:21:10;;;;;;;2.00;1.45;;;;;;;36.73;29.30;100051.16;5092416;28;20059;-74
2022/07/13 11:26:48;;;;;;;3.55;1.40;;;;;;;36.78;28.61;100050.38;5092383;28;20162;-63
2022/07/13 11:29:35;;;;;;;2.03;1.30;;;;;;;36.75;28.15;100043.50;5090590;28;20075;-66
2022/07/13 11:32:04;;;;;;;3.60;1.50;;;;;;;36.77;28.74;100048.72;5091919;28;20416;-63
2022/07/13 11:34:30;;;;;;;1.77;1.33;;;;;;;36.84;28.64;100043.03;5090782;28;20484;-64
2022/07/13 11:37:00;;;;;;;3.83;1.40;;;;;;;36.97;28.66;100042.66;5091820;28;20396;-64
2022/07/13 11:39:29;;;;;;;4.65;1.75;;;;;;;37.17;28.68;100033.00;5090253;28;20048;-64
2022/07/13 11:41:58;;;;;;;2.00;1.70;;;;;;;37.41;28.36;100049.97;5090648;28;20051;-66
2022/07/13 11:44:32;;;;;;;5.63;2.20;;;;;;;37.61;27.87;100045.75;5091785;28;20051;-63